In Rescue
 
Open Full Screen Window  High Contrast Mode
Wind Gusting 00 knots
05
November 14, 2019 1:56 PM EST
Present Weather: Mist
Weather Information
Wind Direction
  250 °
Wind Speed
  05 kt (6 mph)
Wind Gust
  00 kt (0 mph)
Altimeter
30.17 in
Visibility
4 SM
Temperature
00° C
32° F
Dewpoint
-02° C
28° F
Humidity
87%
1hr Rain Fall
00.00 in.
24hr Rain Fall
00.00 in.
Sky Condition
Overcast @ 700 ft
IFR

METAR KRMY 141856Z AUTO 25005KT 4SM BR OVC007 00/M02 A3017 RMK AO2 T10021022

FAA Disclaimer: The data displayed is for advisory purposes only and is not to be used for flight planning or operations.